sensor_id;sensor_type;location;lat;lon;timestamp;pressure;altitude;pressure_sealevel;temperature;humidity
42671;BME280;28283;55.426;37.756;2023-03-15T00:02:24;98872.28;;;4.07;56.43
42671;BME280;28283;55.426;37.756;2023-03-15T00:07:25;98867.19;;;3.97;56.78
42671;BME280;28283;55.426;37.756;2023-03-15T00:12:25;98870.00;;;3.96;57.18
42671;BME280;28283;55.426;37.756;2023-03-15T00:17:25;98854.53;;;3.99;57.16
42671;BME280;28283;55.426;37.756;2023-03-15T00:22:26;98862.19;;;3.94;57.75
42671;BME280;28283;55.426;37.756;2023-03-15T00:27:26;98863.53;;;3.98;57.59
42671;BME280;28283;55.426;37.756;2023-03-15T00:32:27;98858.22;;;3.98;57.99
42671;BME280;28283;55.426;37.756;2023-03-15T00:37:27;98847.41;;;3.92;58.59
42671;BME280;28283;55.426;37.756;2023-03-15T00:42:28;98862.06;;;3.88;58.53
42671;BME280;28283;55.426;37.756;2023-03-15T00:47:29;98867.03;;;3.91;58.86
42671;BME280;28283;55.426;37.756;2023-03-15T00:52:32;98866.34;;;3.97;58.72
42671;BME280;28283;55.426;37.756;2023-03-15T00:57:34;98856.22;;;4.00;58.93
42671;BME280;28283;55.426;37.756;2023-03-15T01:02:35;98854.19;;;4.03;59.22
42671;BME280;28283;55.426;37.756;2023-03-15T01:07:36;98861.00;;;4.05;59.13
42671;BME280;28283;55.426;37.756;2023-03-15T01:12:37;98855.56;;;3.98;59.42
42671;BME280;28283;55.426;37.756;2023-03-15T01:17:37;98859.69;;;3.93;59.69
42671;BME280;28283;55.426;37.756;2023-03-15T01:22:38;98846.06;;;3.96;60.04
42671;BME280;28283;55.426;37.756;2023-03-15T01:27:38;98853.41;;;3.86;59.95
42671;BME280;28283;55.426;37.756;2023-03-15T01:32:39;98857.03;;;3.93;59.95
42671;BME280;28283;55.426;37.756;2023-03-15T01:37:39;98852.75;;;3.83;60.46
42671;BME280;28283;55.426;37.756;2023-03-15T01:48:12;98846.78;;;3.81;60.57
42671;BME280;28283;55.426;37.756;2023-03-15T01:53:13;98860.06;;;3.81;60.72
42671;BME280;28283;55.426;37.756;2023-03-15T01:58:14;98850.75;;;3.86;60.85
42671;BME280;28283;55.426;37.756;2023-03-15T02:03:16;98860.41;;;3.78;60.89
42671;BME280;28283;55.426;37.756;2023-03-15T02:08:18;98860.72;;;3.83;61.00
42671;BME280;28283;55.426;37.756;2023-03-15T02:13:19;98860.56;;;3.85;60.86
42671;BME280;28283;55.426;37.756;2023-03-15T02:18:23;98852.41;;;3.87;61.14
42671;BME280;28283;55.426;37.756;2023-03-15T02:23:23;98849.59;;;3.88;60.82
42671;BME280;28283;55.426;37.756;2023-03-15T02:28:24;98858.53;;;3.95;60.62
42671;BME280;28283;55.426;37.756;2023-03-15T02:33:26;98860.72;;;3.83;60.98
42671;BME280;28283;55.426;37.756;2023-03-15T02:38:28;98855.41;;;3.92;60.91
42671;BME280;28283;55.426;37.756;2023-03-15T02:43:28;98869.66;;;3.99;60.68
42671;BME280;28283;55.426;37.756;2023-03-15T02:48:32;98866.34;;;3.97;60.76
42671;BME280;28283;55.426;37.756;2023-03-15T02:53:33;98859.84;;;3.99;60.51
42671;BME280;28283;55.426;37.756;2023-03-15T02:58:33;98873.69;;;3.95;60.64
42671;BME280;28283;55.426;37.756;2023-03-15T03:03:33;98870.00;;;3.96;60.81
42671;BME280;28283;55.426;37.756;2023-03-15T03:08:34;98864.34;;;3.91;60.98
42671;BME280;28283;55.426;37.756;2023-03-15T03:13:35;98867.19;;;3.97;60.52
42671;BME280;28283;55.426;37.756;2023-03-15T03:18:35;98875.66;;;3.93;60.84
42671;BME280;28283;55.426;37.756;2023-03-15T03:23:36;98878.66;;;3.90;60.86
42671;BME280;28283;55.426;37.756;2023-03-15T03:28:36;98875.03;;;3.82;61.11
42671;BME280;28283;55.426;37.756;2023-03-15T03:33:37;98886.69;;;3.73;61.05
42671;BME280;28283;55.426;37.756;2023-03-15T03:38:41;98886.81;;;3.80;60.93
42671;BME280;28283;55.426;37.756;2023-03-15T03:43:42;98872.03;;;3.77;60.94
42671;BME280;28283;55.426;37.756;2023-03-15T03:48:42;98888.00;;;3.69;60.75
42671;BME280;28283;55.426;37.756;2023-03-15T03:53:43;98879.69;;;3.72;60.85
42671;BME280;28283;55.426;37.756;2023-03-15T03:58:43;98897.81;;;3.60;61.34
42671;BME280;28283;55.426;37.756;2023-03-15T04:03:43;98872.38;;;3.74;60.61
42671;BME280;28283;55.426;37.756;2023-03-15T04:08:44;98880.03;;;3.69;60.54
42671;BME280;28283;55.426;37.756;2023-03-15T04:13:45;98880.38;;;3.66;60.82
42671;BME280;28283;55.426;37.756;2023-03-15T04:18:45;98897.13;;;3.58;60.77
42671;BME280;28283;55.426;37.756;2023-03-15T04:23:46;98890.03;;;3.59;60.98
42671;BME280;28283;55.426;37.756;2023-03-15T04:28:46;98899.16;;;3.65;60.84
42671;BME280;28283;55.426;37.756;2023-03-15T04:33:46;98906.78;;;3.59;60.77
42671;BME280;28283;55.426;37.756;2023-03-15T04:38:47;98910.94;;;3.70;60.89
42671;BME280;28283;55.426;37.756;2023-03-15T04:43:48;98920.91;;;3.68;60.37
42671;BME280;28283;55.426;37.756;2023-03-15T04:48:48;98930.84;;;3.74;60.37
42671;BME280;28283;55.426;37.756;2023-03-15T04:53:51;98922.22;;;3.72;60.32
42671;BME280;28283;55.426;37.756;2023-03-15T04:58:52;98923.53;;;3.85;59.78
42671;BME280;28283;55.426;37.756;2023-03-15T05:03:52;98941.47;;;3.91;59.87
42671;BME280;28283;55.426;37.756;2023-03-15T05:08:53;98926.81;;;4.03;59.65
42671;BME280;28283;55.426;37.756;2023-03-15T05:13:53;98927.16;;;4.16;58.88
42671;BME280;28283;55.426;37.756;2023-03-15T05:18:54;98936.13;;;4.07;59.22
42671;BME280;28283;55.426;37.756;2023-03-15T05:23:56;98949.13;;;4.02;59.45
42671;BME280;28283;55.426;37.756;2023-03-15T05:28:56;98939.59;;;4.16;59.31
42671;BME280;28283;55.426;37.756;2023-03-15T05:33:57;98953.44;;;4.11;59.60
42671;BME280;28283;55.426;37.756;2023-03-15T05:38:57;98953.56;;;4.18;59.43
42671;BME280;28283;55.426;37.756;2023-03-15T05:43:58;98967.34;;;4.30;59.26
42671;BME280;28283;55.426;37.756;2023-03-15T05:48:58;98963.31;;;4.42;58.66
42671;BME280;28283;55.426;37.756;2023-03-15T05:53:59;98974.63;;;4.36;58.94
42671;BME280;28283;55.426;37.756;2023-03-15T05:58:59;98973.47;;;4.38;58.75
42671;BME280;28283;55.426;37.756;2023-03-15T06:04:02;98985.63;;;4.33;59.06
42671;BME280;28283;55.426;37.756;2023-03-15T06:09:03;98990.47;;;4.29;59.55
42671;BME280;28283;55.426;37.756;2023-03-15T06:14:03;98985.47;;;4.34;59.67
42671;BME280;28283;55.426;37.756;2023-03-15T06:19:03;98987.31;;;4.26;59.60
42671;BME280;28283;55.426;37.756;2023-03-15T06:24:04;99003.25;;;4.42;59.92
42671;BME280;28283;55.426;37.756;2023-03-15T06:29:05;98999.19;;;4.63;59.67
42671;BME280;28283;55.426;37.756;2023-03-15T06:34:06;98992.94;;;4.87;59.51
42671;BME280;28283;55.426;37.756;2023-03-15T06:39:07;98998.88;;;4.97;59.23
42671;BME280;28283;55.426;37.756;2023-03-15T06:44:07;99008.25;;;5.24;59.11
42671;BME280;28283;55.426;37.756;2023-03-15T06:49:08;99008.03;;;5.57;57.92
42671;BME280;28283;55.426;37.756;2023-03-15T06:54:08;98989.72;;;5.77;57.63
42671;BME280;28283;55.426;37.756;2023-03-15T06:59:09;99004.97;;;5.68;57.51
42671;BME280;28283;55.426;37.756;2023-03-15T07:04:10;99004.38;;;5.58;57.65
42671;BME280;28283;55.426;37.756;2023-03-15T07:09:11;99009.66;;;5.66;57.66
42671;BME280;28283;55.426;37.756;2023-03-15T07:14:11;99025.81;;;5.65;57.83
42671;BME280;28283;55.426;37.756;2023-03-15T07:19:11;99009.31;;;5.69;58.29
42671;BME280;28283;55.426;37.756;2023-03-15T07:24:12;99015.59;;;5.77;57.85
42671;BME280;28283;55.426;37.756;2023-03-15T07:29:12;99013.03;;;5.83;58.17
42671;BME280;28283;55.426;37.756;2023-03-15T07:34:13;99000.66;;;5.90;57.65
42671;BME280;28283;55.426;37.756;2023-03-15T07:39:13;99016.69;;;5.82;58.41
42671;BME280;28283;55.426;37.756;2023-03-15T07:44:15;99024.66;;;5.90;58.19
42671;BME280;28283;55.426;37.756;2023-03-15T07:49:15;99024.66;;;5.90;58.46
42671;BME280;28283;55.426;37.756;2023-03-15T07:54:16;99026.19;;;6.08;58.56
42671;BME280;28283;55.426;37.756;2023-03-15T07:59:16;99037.09;;;6.21;57.56
42671;BME280;28283;55.426;37.756;2023-03-15T08:04:17;99013.09;;;6.36;57.30
42671;BME280;28283;55.426;37.756;2023-03-15T08:09:17;99044.66;;;6.33;57.19
42671;BME280;28283;55.426;37.756;2023-03-15T08:14:18;99042.59;;;6.20;57.75
42671;BME280;28283;55.426;37.756;2023-03-15T08:19:18;99050.34;;;6.29;57.88
42671;BME280;28283;55.426;37.756;2023-03-15T08:24:19;99053.31;;;6.35;58.05
42671;BME280;28283;55.426;37.756;2023-03-15T08:29:20;99057.28;;;6.39;58.67
42671;BME280;28283;55.426;37.756;2023-03-15T08:34:21;99052.72;;;6.62;58.11
42671;BME280;28283;55.426;37.756;2023-03-15T08:39:21;99061.28;;;6.73;58.21
42671;BME280;28283;55.426;37.756;2023-03-15T08:44:23;99059.91;;;6.92;57.96
42671;BME280;28283;55.426;37.756;2023-03-15T08:49:23;99060.84;;;6.99;57.08
42671;BME280;28283;55.426;37.756;2023-03-15T08:54:24;99043.06;;;7.06;57.14
42671;BME280;28283;55.426;37.756;2023-03-15T08:59:26;99049.41;;;7.05;57.32
42671;BME280;28283;55.426;37.756;2023-03-15T09:04:27;99039.16;;;7.23;57.82
42671;BME280;28283;55.426;37.756;2023-03-15T09:09:27;99044.81;;;7.50;56.82
42671;BME280;28283;55.426;37.756;2023-03-15T09:14:28;99046.81;;;7.63;56.87
42671;BME280;28283;55.426;37.756;2023-03-15T09:19:28;99056.84;;;7.97;56.17
42671;BME280;28283;55.426;37.756;2023-03-15T09:24:29;99051.09;;;8.22;55.30
42671;BME280;28283;55.426;37.756;2023-03-15T09:29:29;99053.75;;;8.44;54.74
42671;BME280;28283;55.426;37.756;2023-03-15T09:34:29;99038.78;;;8.56;54.08
42671;BME280;28283;55.426;37.756;2023-03-15T09:39:30;99060.44;;;8.54;53.99
42671;BME280;28283;55.426;37.756;2023-03-15T09:44:42;99057.22;;;8.66;54.26
42671;BME280;28283;55.426;37.756;2023-03-15T09:49:56;99059.88;;;8.94;53.37
42671;BME280;28283;55.426;37.756;2023-03-15T09:55:12;99034.75;;;9.02;53.39
42671;BME280;28283;55.426;37.756;2023-03-15T10:00:14;99030.28;;;9.22;53.48
42671;BME280;28283;55.426;37.756;2023-03-15T10:05:31;99008.50;;;9.39;52.67
42671;BME280;28283;55.426;37.756;2023-03-15T10:10:33;99020.94;;;9.53;51.52
42671;BME280;28283;55.426;37.756;2023-03-15T10:20:40;99021.78;;;9.87;52.60
42671;BME280;28283;55.426;37.756;2023-03-15T10:25:41;99019.53;;;9.97;52.25
42671;BME280;28283;55.426;37.756;2023-03-15T10:30:46;99021.75;;;9.67;53.31
42671;BME280;28283;55.426;37.756;2023-03-15T10:35:47;99027.53;;;9.57;52.69
42671;BME280;28283;55.426;37.756;2023-03-15T10:45:58;99021.56;;;9.68;53.39
42671;BME280;28283;55.426;37.756;2023-03-15T10:51:06;99012.94;;;10.13;53.28
42671;BME280;28283;55.426;37.756;2023-03-15T10:56:21;99021.00;;;10.60;51.76
42671;BME280;28283;55.426;37.756;2023-03-15T11:01:26;99023.44;;;10.95;50.75
42671;BME280;28283;55.426;37.756;2023-03-15T11:06:28;99023.59;;;11.00;50.89
42671;BME280;28283;55.426;37.756;2023-03-15T11:11:29;99041.03;;;10.70;50.97
42671;BME280;28283;55.426;37.756;2023-03-15T11:16:48;99042.75;;;10.52;50.27
42671;BME280;28283;55.426;37.756;2023-03-15T11:21:50;99016.88;;;10.30;49.76
42671;BME280;28283;55.426;37.756;2023-03-15T11:26:51;99035.84;;;9.82;50.77
42671;BME280;28283;55.426;37.756;2023-03-15T11:31:54;99040.31;;;9.55;51.11
42671;BME280;28283;55.426;37.756;2023-03-15T11:36:56;99036.19;;;9.46;52.18
42671;BME280;28283;55.426;37.756;2023-03-15T11:41:58;99039.09;;;9.58;52.03
42671;BME280;28283;55.426;37.756;2023-03-15T11:52:21;99031.53;;;10.08;50.40
42671;BME280;28283;55.426;37.756;2023-03-15T12:03:22;99020.56;;;9.69;52.09
42671;BME280;28283;55.426;37.756;2023-03-15T12:13:27;99024.72;;;10.19;50.82
42671;BME280;28283;55.426;37.756;2023-03-15T12:24:01;99015.22;;;10.69;50.27
42671;BME280;28283;55.426;37.756;2023-03-15T12:29:05;99026.59;;;10.72;49.30
42671;BME280;28283;55.426;37.756;2023-03-15T12:34:11;99028.63;;;10.89;49.31
42671;BME280;28283;55.426;37.756;2023-03-15T12:44:17;99030.13;;;11.31;48.19
42671;BME280;28283;55.426;37.756;2023-03-15T12:54:36;99016.19;;;10.95;48.62
42671;BME280;28283;55.426;37.756;2023-03-15T12:59:49;99013.78;;;10.47;49.90
42671;BME280;28283;55.426;37.756;2023-03-15T13:04:57;99010.25;;;10.26;49.85
42671;BME280;28283;55.426;37.756;2023-03-15T13:15:03;99028.38;;;9.78;50.81
42671;BME280;28283;55.426;37.756;2023-03-15T13:25:26;99027.75;;;9.69;50.14
42671;BME280;28283;55.426;37.756;2023-03-15T13:35:45;99029.69;;;9.27;50.62
42671;BME280;28283;55.426;37.756;2023-03-15T13:40:46;99020.94;;;9.05;51.13
42671;BME280;28283;55.426;37.756;2023-03-15T13:45:46;99026.84;;;8.87;51.69
42671;BME280;28283;55.426;37.756;2023-03-15T13:50:47;99017.94;;;8.79;51.80
42671;BME280;28283;55.426;37.756;2023-03-15T13:55:48;99025.88;;;8.66;51.99
42671;BME280;28283;55.426;37.756;2023-03-15T14:00:57;99029.34;;;8.60;52.47
42671;BME280;28283;55.426;37.756;2023-03-15T14:05:59;99024.56;;;8.55;52.72
42671;BME280;28283;55.426;37.756;2023-03-15T14:11:04;99027.31;;;8.62;51.96
42671;BME280;28283;55.426;37.756;2023-03-15T14:16:06;99028.16;;;8.41;52.23
42671;BME280;28283;55.426;37.756;2023-03-15T14:21:12;99026.13;;;8.21;52.81
42671;BME280;28283;55.426;37.756;2023-03-15T14:26:17;99033.19;;;8.01;52.86
42671;BME280;28283;55.426;37.756;2023-03-15T14:31:19;99024.09;;;7.95;52.82
42671;BME280;28283;55.426;37.756;2023-03-15T14:36:23;99040.84;;;7.82;52.90
42671;BME280;28283;55.426;37.756;2023-03-15T14:46:30;99028.13;;;7.48;53.56
42671;BME280;28283;55.426;37.756;2023-03-15T14:51:30;99035.22;;;7.41;53.18
42671;BME280;28283;55.426;37.756;2023-03-15T14:56:32;99040.97;;;7.23;54.59
42671;BME280;28283;55.426;37.756;2023-03-15T15:01:35;99031.41;;;7.14;54.49
42671;BME280;28283;55.426;37.756;2023-03-15T15:06:37;99045.44;;;7.01;53.97
42671;BME280;28283;55.426;37.756;2023-03-15T15:11:37;99038.72;;;6.75;54.57
42671;BME280;28283;55.426;37.756;2023-03-15T15:16:38;99050.59;;;6.43;54.47
42671;BME280;28283;55.426;37.756;2023-03-15T15:21:39;99056.06;;;6.26;55.20
42671;BME280;28283;55.426;37.756;2023-03-15T15:26:41;99060.09;;;5.99;56.35
42671;BME280;28283;55.426;37.756;2023-03-15T15:31:42;99055.97;;;5.97;56.52
42671;BME280;28283;55.426;37.756;2023-03-15T15:36:43;99064.53;;;5.84;56.35
42671;BME280;28283;55.426;37.756;2023-03-15T15:41:44;99061.44;;;5.72;56.62
42671;BME280;28283;55.426;37.756;2023-03-15T15:46:44;99056.28;;;5.70;56.66
42671;BME280;28283;55.426;37.756;2023-03-15T15:51:45;99064.34;;;5.62;57.06
42671;BME280;28283;55.426;37.756;2023-03-15T15:56:50;99062.16;;;5.34;57.75
42671;BME280;28283;55.426;37.756;2023-03-15T16:01:51;99077.50;;;5.32;58.26
42671;BME280;28283;55.426;37.756;2023-03-15T16:06:55;99076.03;;;5.22;58.29
42671;BME280;28283;55.426;37.756;2023-03-15T16:11:57;99080.09;;;5.09;58.25
42671;BME280;28283;55.426;37.756;2023-03-15T16:16:58;99072.78;;;5.03;58.70
42671;BME280;28283;55.426;37.756;2023-03-15T16:21:59;99081.28;;;4.98;58.55
42671;BME280;28283;55.426;37.756;2023-03-15T16:27:00;99087.97;;;4.94;58.72
42671;BME280;28283;55.426;37.756;2023-03-15T16:32:01;99097.13;;;4.92;58.93
42671;BME280;28283;55.426;37.756;2023-03-15T16:37:02;99097.78;;;4.94;58.69
42671;BME280;28283;55.426;37.756;2023-03-15T16:42:02;99097.13;;;4.92;58.75
42671;BME280;28283;55.426;37.756;2023-03-15T16:47:03;99097.97;;;4.84;59.00
42671;BME280;28283;55.426;37.756;2023-03-15T16:52:03;99101.13;;;4.88;58.65
42671;BME280;28283;55.426;37.756;2023-03-15T16:57:11;99105.50;;;4.72;59.06
42671;BME280;28283;55.426;37.756;2023-03-15T17:02:14;99111.97;;;4.70;58.99
42671;BME280;28283;55.426;37.756;2023-03-15T17:07:16;99113.97;;;4.68;59.04
42671;BME280;28283;55.426;37.756;2023-03-15T17:12:24;99118.16;;;4.70;59.05
42671;BME280;28283;55.426;37.756;2023-03-15T17:17:28;99120.50;;;4.65;59.10
42671;BME280;28283;55.426;37.756;2023-03-15T17:22:30;99114.66;;;4.70;59.04
42671;BME280;28283;55.426;37.756;2023-03-15T17:27:32;99125.94;;;4.72;59.29
42671;BME280;28283;55.426;37.756;2023-03-15T17:32:33;99121.31;;;4.66;59.49
42671;BME280;28283;55.426;37.756;2023-03-15T17:37:34;99101.03;;;4.48;59.30
42671;BME280;28283;55.426;37.756;2023-03-15T17:42:35;99117.50;;;4.60;59.02
42671;BME280;28283;55.426;37.756;2023-03-15T17:47:35;99126.50;;;4.51;59.70
42671;BME280;28283;55.426;37.756;2023-03-15T17:52:36;99122.31;;;4.56;59.51
42671;BME280;28283;55.426;37.756;2023-03-15T17:57:36;99111.69;;;4.56;59.40
42671;BME280;28283;55.426;37.756;2023-03-15T18:02:37;99114.50;;;4.55;59.46
42671;BME280;28283;55.426;37.756;2023-03-15T18:07:38;99107.66;;;4.61;59.63
42671;BME280;28283;55.426;37.756;2023-03-15T18:12:39;99111.66;;;4.65;58.89
42671;BME280;28283;55.426;37.756;2023-03-15T18:17:40;99116.00;;;4.49;59.64
42671;BME280;28283;55.426;37.756;2023-03-15T18:22:41;99105.38;;;4.49;59.73
42671;BME280;28283;55.426;37.756;2023-03-15T18:27:41;99113.69;;;4.54;59.65
42671;BME280;28283;55.426;37.756;2023-03-15T18:32:42;99110.84;;;4.39;60.11
42671;BME280;28283;55.426;37.756;2023-03-15T18:37:42;99112.34;;;4.34;60.20
42671;BME280;28283;55.426;37.756;2023-03-15T18:42:43;99109.69;;;4.26;60.03
42671;BME280;28283;55.426;37.756;2023-03-15T18:47:43;99116.34;;;4.30;60.56
42671;BME280;28283;55.426;37.756;2023-03-15T18:52:44;99108.69;;;4.27;60.91
42671;BME280;28283;55.426;37.756;2023-03-15T18:57:44;99109.38;;;4.20;60.84
42671;BME280;28283;55.426;37.756;2023-03-15T19:02:45;99107.38;;;4.23;60.96
42671;BME280;28283;55.426;37.756;2023-03-15T19:07:46;99102.53;;;4.18;61.18
42671;BME280;28283;55.426;37.756;2023-03-15T19:12:47;99096.03;;;4.12;61.16
42671;BME280;28283;55.426;37.756;2023-03-15T19:17:48;99097.22;;;4.18;61.41
42671;BME280;28283;55.426;37.756;2023-03-15T19:22:51;99091.09;;;4.09;61.34
42671;BME280;28283;55.426;37.756;2023-03-15T19:27:52;99096.72;;;4.14;61.46
42671;BME280;28283;55.426;37.756;2023-03-15T19:32:52;99090.38;;;4.07;61.46
42671;BME280;28283;55.426;37.756;2023-03-15T19:37:53;99081.41;;;4.00;61.84
42671;BME280;28283;55.426;37.756;2023-03-15T19:42:55;99090.38;;;3.91;62.04
42671;BME280;28283;55.426;37.756;2023-03-15T19:47:55;99075.78;;;3.95;62.51
42671;BME280;28283;55.426;37.756;2023-03-15T19:52:56;99088.25;;;4.03;62.50
42671;BME280;28283;55.426;37.756;2023-03-15T19:57:57;99080.25;;;3.94;63.05
42671;BME280;28283;55.426;37.756;2023-03-15T20:02:57;99073.41;;;3.83;63.75
42671;BME280;28283;55.426;37.756;2023-03-15T20:07:57;99065.78;;;3.89;63.47
42671;BME280;28283;55.426;37.756;2023-03-15T20:12:58;99069.09;;;3.74;63.49
42671;BME280;28283;55.426;37.756;2023-03-15T20:17:58;99062.13;;;3.73;63.63
42671;BME280;28283;55.426;37.756;2023-03-15T20:22:59;99063.28;;;3.71;64.10
42671;BME280;28283;55.426;37.756;2023-03-15T20:27:59;99061.41;;;3.55;64.92
42671;BME280;28283;55.426;37.756;2023-03-15T20:33:00;99060.44;;;3.56;64.81
42671;BME280;28283;55.426;37.756;2023-03-15T20:38:00;99062.03;;;3.40;66.81
42671;BME280;28283;55.426;37.756;2023-03-15T20:43:07;99057.38;;;3.34;66.33
42671;BME280;28283;55.426;37.756;2023-03-15T20:48:07;99058.50;;;3.23;66.30
42671;BME280;28283;55.426;37.756;2023-03-15T20:53:08;99060.16;;;3.16;66.94
42671;BME280;28283;55.426;37.756;2023-03-15T20:58:08;99059.94;;;3.10;67.18
42671;BME280;28283;55.426;37.756;2023-03-15T21:03:10;99054.59;;;3.01;68.17
42671;BME280;28283;55.426;37.756;2023-03-15T21:08:12;99050.31;;;3.09;67.63
42671;BME280;28283;55.426;37.756;2023-03-15T21:13:15;99057.94;;;3.03;67.67
42671;BME280;28283;55.426;37.756;2023-03-15T21:18:16;99054.59;;;3.01;68.62
42671;BME280;28283;55.426;37.756;2023-03-15T21:23:17;99067.41;;;3.06;68.84
42671;BME280;28283;55.426;37.756;2023-03-15T21:28:17;99056.94;;;3.04;69.51
42671;BME280;28283;55.426;37.756;2023-03-15T21:33:18;99056.31;;;3.11;69.22
42671;BME280;28283;55.426;37.756;2023-03-15T21:38:18;99053.31;;;3.14;68.48
42671;BME280;28283;55.426;37.756;2023-03-15T21:43:19;99002.75;;;2.81;68.42
42671;BME280;28283;55.426;37.756;2023-03-15T21:48:19;99044.22;;;3.16;68.54
42671;BME280;28283;55.426;37.756;2023-03-15T21:53:20;99052.19;;;3.16;68.45
42671;BME280;28283;55.426;37.756;2023-03-15T21:58:20;99054.69;;;3.18;69.20
42671;BME280;28283;55.426;37.756;2023-03-15T22:03:21;99051.56;;;3.31;68.51
42671;BME280;28283;55.426;37.756;2023-03-15T22:08:24;99046.88;;;3.24;68.40
42671;BME280;28283;55.426;37.756;2023-03-15T22:13:25;99058.72;;;3.38;68.94
42671;BME280;28283;55.426;37.756;2023-03-15T22:18:26;99055.56;;;3.35;69.07
42671;BME280;28283;55.426;37.756;2023-03-15T22:23:27;99059.53;;;3.31;69.01
42671;BME280;28283;55.426;37.756;2023-03-15T22:28:28;99067.66;;;3.37;69.17
42671;BME280;28283;55.426;37.756;2023-03-15T22:33:28;99061.69;;;3.35;68.90
42671;BME280;28283;55.426;37.756;2023-03-15T22:38:28;99067.66;;;3.37;69.27
42671;BME280;28283;55.426;37.756;2023-03-15T22:43:36;99068.00;;;3.34;69.30
42671;BME280;28283;55.426;37.756;2023-03-15T22:48:37;99058.00;;;3.28;69.57
42671;BME280;28283;55.426;37.756;2023-03-15T22:53:38;99065.16;;;3.28;69.73
42671;BME280;28283;55.426;37.756;2023-03-15T22:58:38;99069.50;;;3.29;70.10
42671;BME280;28283;55.426;37.756;2023-03-15T23:03:39;99049.38;;;3.26;70.12
42671;BME280;28283;55.426;37.756;2023-03-15T23:08:40;99044.22;;;3.16;70.70
42671;BME280;28283;55.426;37.756;2023-03-15T23:13:40;99040.03;;;3.05;70.64
42671;BME280;28283;55.426;37.756;2023-03-15T23:18:41;99035.34;;;2.99;70.79
42671;BME280;28283;55.426;37.756;2023-03-15T23:23:42;99045.00;;;3.09;71.64
42671;BME280;28283;55.426;37.756;2023-03-15T23:28:42;99047.94;;;2.97;71.85
42671;BME280;28283;55.426;37.756;2023-03-15T23:33:42;99053.91;;;2.91;71.64
42671;BME280;28283;55.426;37.756;2023-03-15T23:38:46;99053.84;;;2.83;71.94
42671;BME280;28283;55.426;37.756;2023-03-15T23:43:46;99043.25;;;2.83;72.79
42671;BME280;28283;55.426;37.756;2023-03-15T23:48:46;99035.72;;;2.70;72.66
42671;BME280;28283;55.426;37.756;2023-03-15T23:53:47;99016.78;;;2.65;73.12
42671;BME280;28283;55.426;37.756;2023-03-15T23:58:47;99006.16;;;2.65;73.00
